sensor_id;sensor_type;location;lat;lon;timestamp;temperature;humidity
25346;DHT22;13300;51.032;3.710;2023-07-13T00:00:33;16.70;99.90
25346;DHT22;13300;51.032;3.710;2023-07-13T00:02:59;16.70;99.90
25346;DHT22;13300;51.032;3.710;2023-07-13T00:05:25;16.60;99.90
25346;DHT22;13300;51.032;3.710;2023-07-13T00:07:53;16.60;99.90
25346;DHT22;13300;51.032;3.710;2023-07-13T00:10:20;16.60;99.90
25346;DHT22;13300;51.032;3.710;2023-07-13T00:12:47;16.70;99.90
25346;DHT22;13300;51.032;3.710;2023-07-13T00:15:19;16.70;99.90
25346;DHT22;13300;51.032;3.710;2023-07-13T00:17:49;16.70;99.90
25346;DHT22;13300;51.032;3.710;2023-07-13T00:20:16;16.80;99.90
25346;DHT22;13300;51.032;3.710;2023-07-13T00:22:42;16.80;99.90
25346;DHT22;13300;51.032;3.710;2023-07-13T00:25:10;16.70;99.90
25346;DHT22;13300;51.032;3.710;2023-07-13T00:27:37;16.60;99.90
25346;DHT22;13300;51.032;3.710;2023-07-13T00:30:03;16.60;99.90
25346;DHT22;13300;51.032;3.710;2023-07-13T00:32:30;16.50;99.90
25346;DHT22;13300;51.032;3.710;2023-07-13T00:34:57;16.50;99.90
25346;DHT22;13300;51.032;3.710;2023-07-13T00:37:25;16.50;99.90
25346;DHT22;13300;51.032;3.710;2023-07-13T00:39:51;16.40;99.90
25346;DHT22;13300;51.032;3.710;2023-07-13T00:42:17;16.40;99.90
25346;DHT22;13300;51.032;3.710;2023-07-13T00:45:05;16.30;99.90
25346;DHT22;13300;51.032;3.710;2023-07-13T00:47:31;16.40;99.90
25346;DHT22;13300;51.032;3.710;2023-07-13T00:49:57;16.40;99.90
25346;DHT22;13300;51.032;3.710;2023-07-13T00:52:23;16.30;99.90
25346;DHT22;13300;51.032;3.710;2023-07-13T00:54:50;16.40;99.90
25346;DHT22;13300;51.032;3.710;2023-07-13T00:57:18;16.30;99.90
25346;DHT22;13300;51.032;3.710;2023-07-13T00:59:52;16.30;99.90
25346;DHT22;13300;51.032;3.710;2023-07-13T01:02:20;16.20;99.90
25346;DHT22;13300;51.032;3.710;2023-07-13T01:04:47;16.40;99.90
25346;DHT22;13300;51.032;3.710;2023-07-13T01:07:16;16.30;99.90
25346;DHT22;13300;51.032;3.710;2023-07-13T01:09:45;16.30;99.90
25346;DHT22;13300;51.032;3.710;2023-07-13T01:12:12;16.30;99.90
25346;DHT22;13300;51.032;3.710;2023-07-13T01:14:40;16.30;99.90
25346;DHT22;13300;51.032;3.710;2023-07-13T01:17:10;16.30;99.90
25346;DHT22;13300;51.032;3.710;2023-07-13T01:19:43;16.20;99.90
25346;DHT22;13300;51.032;3.710;2023-07-13T01:22:18;16.30;99.90
25346;DHT22;13300;51.032;3.710;2023-07-13T01:24:46;16.30;99.90
25346;DHT22;13300;51.032;3.710;2023-07-13T01:27:16;16.10;99.90
25346;DHT22;13300;51.032;3.710;2023-07-13T01:29:44;16.20;99.90
25346;DHT22;13300;51.032;3.710;2023-07-13T01:32:16;16.20;99.90
25346;DHT22;13300;51.032;3.710;2023-07-13T01:34:47;16.20;99.90
25346;DHT22;13300;51.032;3.710;2023-07-13T01:37:13;16.10;99.90
25346;DHT22;13300;51.032;3.710;2023-07-13T01:39:41;16.10;99.90
25346;DHT22;13300;51.032;3.710;2023-07-13T01:42:10;16.00;99.90
25346;DHT22;13300;51.032;3.710;2023-07-13T01:44:36;16.00;99.90
25346;DHT22;13300;51.032;3.710;2023-07-13T01:47:03;16.00;99.90
25346;DHT22;13300;51.032;3.710;2023-07-13T01:49:29;16.00;99.90
25346;DHT22;13300;51.032;3.710;2023-07-13T01:51:55;16.10;99.90
25346;DHT22;13300;51.032;3.710;2023-07-13T01:54:20;16.10;99.90
25346;DHT22;13300;51.032;3.710;2023-07-13T01:56:46;16.10;99.90
25346;DHT22;13300;51.032;3.710;2023-07-13T01:59:12;16.00;99.90
25346;DHT22;13300;51.032;3.710;2023-07-13T02:01:38;16.00;99.90
25346;DHT22;13300;51.032;3.710;2023-07-13T02:04:04;15.90;99.90
25346;DHT22;13300;51.032;3.710;2023-07-13T02:06:30;15.90;99.90
25346;DHT22;13300;51.032;3.710;2023-07-13T02:08:56;15.90;99.90
25346;DHT22;13300;51.032;3.710;2023-07-13T02:11:22;15.80;99.90
25346;DHT22;13300;51.032;3.710;2023-07-13T02:13:50;15.80;99.90
25346;DHT22;13300;51.032;3.710;2023-07-13T02:16:16;15.90;99.90
25346;DHT22;13300;51.032;3.710;2023-07-13T02:18:42;16.00;99.90
25346;DHT22;13300;51.032;3.710;2023-07-13T02:21:10;16.00;99.90
25346;DHT22;13300;51.032;3.710;2023-07-13T02:23:36;16.10;99.90
25346;DHT22;13300;51.032;3.710;2023-07-13T02:26:03;16.00;99.90
25346;DHT22;13300;51.032;3.710;2023-07-13T02:28:29;15.90;99.90
25346;DHT22;13300;51.032;3.710;2023-07-13T02:30:54;15.80;99.90
25346;DHT22;13300;51.032;3.710;2023-07-13T02:33:20;15.80;99.90
25346;DHT22;13300;51.032;3.710;2023-07-13T02:35:46;15.80;99.90
25346;DHT22;13300;51.032;3.710;2023-07-13T02:38:12;15.80;99.90
25346;DHT22;13300;51.032;3.710;2023-07-13T02:40:37;15.80;99.90
25346;DHT22;13300;51.032;3.710;2023-07-13T02:43:03;15.70;99.90
25346;DHT22;13300;51.032;3.710;2023-07-13T02:45:29;15.80;99.90
25346;DHT22;13300;51.032;3.710;2023-07-13T02:47:55;15.70;99.90
25346;DHT22;13300;51.032;3.710;2023-07-13T02:50:21;15.70;99.90
25346;DHT22;13300;51.032;3.710;2023-07-13T02:52:46;15.80;99.90
25346;DHT22;13300;51.032;3.710;2023-07-13T02:55:12;15.80;99.90
25346;DHT22;13300;51.032;3.710;2023-07-13T02:57:38;15.80;99.90
25346;DHT22;13300;51.032;3.710;2023-07-13T03:00:04;15.80;99.90
25346;DHT22;13300;51.032;3.710;2023-07-13T03:02:34;15.90;99.90
25346;DHT22;13300;51.032;3.710;2023-07-13T03:05:00;15.90;99.90
25346;DHT22;13300;51.032;3.710;2023-07-13T03:07:26;15.90;99.90
25346;DHT22;13300;51.032;3.710;2023-07-13T03:09:56;15.80;99.90
25346;DHT22;13300;51.032;3.710;2023-07-13T03:12:23;15.60;99.90
25346;DHT22;13300;51.032;3.710;2023-07-13T03:14:49;15.60;99.90
25346;DHT22;13300;51.032;3.710;2023-07-13T03:17:14;15.60;99.90
25346;DHT22;13300;51.032;3.710;2023-07-13T03:19:42;15.50;99.90
25346;DHT22;13300;51.032;3.710;2023-07-13T03:22:09;15.60;99.90
25346;DHT22;13300;51.032;3.710;2023-07-13T03:24:35;15.60;99.90
25346;DHT22;13300;51.032;3.710;2023-07-13T03:27:04;15.70;99.90
25346;DHT22;13300;51.032;3.710;2023-07-13T03:29:30;15.70;99.90
25346;DHT22;13300;51.032;3.710;2023-07-13T03:31:56;15.70;99.90
25346;DHT22;13300;51.032;3.710;2023-07-13T03:34:24;15.80;99.90
25346;DHT22;13300;51.032;3.710;2023-07-13T03:36:50;15.90;99.90
25346;DHT22;13300;51.032;3.710;2023-07-13T03:39:16;15.90;99.90
25346;DHT22;13300;51.032;3.710;2023-07-13T03:41:41;16.00;99.90
25346;DHT22;13300;51.032;3.710;2023-07-13T03:44:07;16.00;99.90
25346;DHT22;13300;51.032;3.710;2023-07-13T03:46:33;16.10;99.90
25346;DHT22;13300;51.032;3.710;2023-07-13T03:48:59;16.00;99.90
25346;DHT22;13300;51.032;3.710;2023-07-13T03:51:28;16.00;99.90
25346;DHT22;13300;51.032;3.710;2023-07-13T03:53:54;15.90;99.90
25346;DHT22;13300;51.032;3.710;2023-07-13T03:56:20;15.90;99.90
25346;DHT22;13300;51.032;3.710;2023-07-13T03:58:47;15.90;99.90
25346;DHT22;13300;51.032;3.710;2023-07-13T04:01:15;15.90;99.90
25346;DHT22;13300;51.032;3.710;2023-07-13T04:03:43;15.80;99.90
25346;DHT22;13300;51.032;3.710;2023-07-13T04:06:17;15.80;99.90
25346;DHT22;13300;51.032;3.710;2023-07-13T04:08:48;15.80;99.90
25346;DHT22;13300;51.032;3.710;2023-07-13T04:11:15;15.90;99.90
25346;DHT22;13300;51.032;3.710;2023-07-13T04:13:41;16.00;99.90
25346;DHT22;13300;51.032;3.710;2023-07-13T04:16:09;16.10;99.90
25346;DHT22;13300;51.032;3.710;2023-07-13T04:18:37;16.20;99.90
25346;DHT22;13300;51.032;3.710;2023-07-13T04:21:02;16.30;99.90
25346;DHT22;13300;51.032;3.710;2023-07-13T04:23:29;16.30;99.90
25346;DHT22;13300;51.032;3.710;2023-07-13T04:25:54;16.40;99.90
25346;DHT22;13300;51.032;3.710;2023-07-13T04:28:22;16.40;99.90
25346;DHT22;13300;51.032;3.710;2023-07-13T04:30:49;16.10;99.90
25346;DHT22;13300;51.032;3.710;2023-07-13T04:33:15;16.20;99.90
25346;DHT22;13300;51.032;3.710;2023-07-13T04:35:43;16.30;99.90
25346;DHT22;13300;51.032;3.710;2023-07-13T04:38:09;16.30;99.90
25346;DHT22;13300;51.032;3.710;2023-07-13T04:40:37;16.50;99.90
25346;DHT22;13300;51.032;3.710;2023-07-13T04:43:02;16.50;99.90
25346;DHT22;13300;51.032;3.710;2023-07-13T04:45:31;16.50;99.90
25346;DHT22;13300;51.032;3.710;2023-07-13T04:47:57;16.60;99.90
25346;DHT22;13300;51.032;3.710;2023-07-13T04:50:22;16.60;99.90
25346;DHT22;13300;51.032;3.710;2023-07-13T04:52:50;16.60;99.90
25346;DHT22;13300;51.032;3.710;2023-07-13T04:55:16;16.60;99.90
25346;DHT22;13300;51.032;3.710;2023-07-13T04:57:43;16.70;99.90
25346;DHT22;13300;51.032;3.710;2023-07-13T05:00:10;16.80;99.90
25346;DHT22;13300;51.032;3.710;2023-07-13T05:02:38;17.00;99.90
25346;DHT22;13300;51.032;3.710;2023-07-13T05:05:05;17.00;99.90
25346;DHT22;13300;51.032;3.710;2023-07-13T05:07:31;16.90;99.90
25346;DHT22;13300;51.032;3.710;2023-07-13T05:09:59;16.80;99.90
25346;DHT22;13300;51.032;3.710;2023-07-13T05:12:25;16.90;99.90
25346;DHT22;13300;51.032;3.710;2023-07-13T05:14:51;16.80;99.90
25346;DHT22;13300;51.032;3.710;2023-07-13T05:17:19;16.80;99.90
25346;DHT22;13300;51.032;3.710;2023-07-13T05:19:45;16.90;99.90
25346;DHT22;13300;51.032;3.710;2023-07-13T05:22:10;17.20;99.90
25346;DHT22;13300;51.032;3.710;2023-07-13T05:24:36;17.10;99.90
25346;DHT22;13300;51.032;3.710;2023-07-13T05:27:02;17.20;99.90
25346;DHT22;13300;51.032;3.710;2023-07-13T05:29:28;17.30;99.90
25346;DHT22;13300;51.032;3.710;2023-07-13T05:31:54;17.40;99.90
25346;DHT22;13300;51.032;3.710;2023-07-13T05:34:22;17.50;99.90
25346;DHT22;13300;51.032;3.710;2023-07-13T05:36:48;17.70;99.90
25346;DHT22;13300;51.032;3.710;2023-07-13T05:39:14;17.50;99.90
25346;DHT22;13300;51.032;3.710;2023-07-13T05:41:40;17.60;99.90
25346;DHT22;13300;51.032;3.710;2023-07-13T05:44:06;17.60;99.90
25346;DHT22;13300;51.032;3.710;2023-07-13T05:46:32;17.80;99.90
25346;DHT22;13300;51.032;3.710;2023-07-13T05:49:00;17.80;99.90
25346;DHT22;13300;51.032;3.710;2023-07-13T05:51:26;17.80;99.90
25346;DHT22;13300;51.032;3.710;2023-07-13T05:53:52;17.90;99.90
25346;DHT22;13300;51.032;3.710;2023-07-13T05:56:20;17.90;99.90
25346;DHT22;13300;51.032;3.710;2023-07-13T05:58:48;17.90;99.90
25346;DHT22;13300;51.032;3.710;2023-07-13T06:01:17;18.00;99.90
25346;DHT22;13300;51.032;3.710;2023-07-13T06:03:44;18.30;99.90
25346;DHT22;13300;51.032;3.710;2023-07-13T06:06:10;18.50;99.90
25346;DHT22;13300;51.032;3.710;2023-07-13T06:08:37;18.70;99.90
25346;DHT22;13300;51.032;3.710;2023-07-13T06:11:08;18.60;99.90
25346;DHT22;13300;51.032;3.710;2023-07-13T06:13:39;18.50;99.90
25346;DHT22;13300;51.032;3.710;2023-07-13T06:16:05;18.70;99.90
25346;DHT22;13300;51.032;3.710;2023-07-13T06:18:32;18.80;99.90
25346;DHT22;13300;51.032;3.710;2023-07-13T06:21:01;18.80;99.90
25346;DHT22;13300;51.032;3.710;2023-07-13T06:23:26;18.80;99.90
25346;DHT22;13300;51.032;3.710;2023-07-13T06:25:52;18.90;99.90
25346;DHT22;13300;51.032;3.710;2023-07-13T06:28:18;18.90;99.90
25346;DHT22;13300;51.032;3.710;2023-07-13T06:30:44;19.00;99.90
25346;DHT22;13300;51.032;3.710;2023-07-13T06:33:10;19.10;99.90
25346;DHT22;13300;51.032;3.710;2023-07-13T06:35:35;19.10;99.90
25346;DHT22;13300;51.032;3.710;2023-07-13T06:38:01;19.00;99.90
25346;DHT22;13300;51.032;3.710;2023-07-13T06:40:28;19.00;99.90
25346;DHT22;13300;51.032;3.710;2023-07-13T06:42:54;19.20;99.90
25346;DHT22;13300;51.032;3.710;2023-07-13T06:45:20;19.30;99.90
25346;DHT22;13300;51.032;3.710;2023-07-13T06:47:45;19.60;99.90
25346;DHT22;13300;51.032;3.710;2023-07-13T06:50:11;19.90;99.90
25346;DHT22;13300;51.032;3.710;2023-07-13T06:52:37;20.10;99.90
25346;DHT22;13300;51.032;3.710;2023-07-13T06:55:03;20.40;99.90
25346;DHT22;13300;51.032;3.710;2023-07-13T06:57:31;20.90;99.90
25346;DHT22;13300;51.032;3.710;2023-07-13T06:59:57;20.90;99.90
25346;DHT22;13300;51.032;3.710;2023-07-13T07:02:23;20.80;99.90
25346;DHT22;13300;51.032;3.710;2023-07-13T07:04:49;20.60;99.90
25346;DHT22;13300;51.032;3.710;2023-07-13T07:07:15;20.60;99.90
25346;DHT22;13300;51.032;3.710;2023-07-13T07:09:43;20.60;99.90
25346;DHT22;13300;51.032;3.710;2023-07-13T07:12:09;20.60;99.90
25346;DHT22;13300;51.032;3.710;2023-07-13T07:14:38;20.70;99.90
25346;DHT22;13300;51.032;3.710;2023-07-13T07:17:03;20.90;99.90
25346;DHT22;13300;51.032;3.710;2023-07-13T07:19:30;21.20;99.90
25346;DHT22;13300;51.032;3.710;2023-07-13T07:21:56;21.30;99.90
25346;DHT22;13300;51.032;3.710;2023-07-13T07:24:21;21.50;99.90
25346;DHT22;13300;51.032;3.710;2023-07-13T07:26:47;21.70;99.90
25346;DHT22;13300;51.032;3.710;2023-07-13T07:29:13;21.90;99.90
25346;DHT22;13300;51.032;3.710;2023-07-13T07:31:38;22.00;99.90
25346;DHT22;13300;51.032;3.710;2023-07-13T07:34:04;22.20;99.90
25346;DHT22;13300;51.032;3.710;2023-07-13T07:36:30;22.20;99.90
25346;DHT22;13300;51.032;3.710;2023-07-13T07:38:55;23.10;99.90
25346;DHT22;13300;51.032;3.710;2023-07-13T07:41:21;23.80;99.90
25346;DHT22;13300;51.032;3.710;2023-07-13T07:43:47;24.30;99.90
25346;DHT22;13300;51.032;3.710;2023-07-13T07:46:12;24.50;99.90
25346;DHT22;13300;51.032;3.710;2023-07-13T07:48:38;24.10;99.90
25346;DHT22;13300;51.032;3.710;2023-07-13T07:51:04;24.10;99.90
25346;DHT22;13300;51.032;3.710;2023-07-13T07:53:30;25.20;99.90
25346;DHT22;13300;51.032;3.710;2023-07-13T07:55:55;26.80;99.90
25346;DHT22;13300;51.032;3.710;2023-07-13T07:58:24;27.70;99.90
25346;DHT22;13300;51.032;3.710;2023-07-13T08:00:49;28.00;99.90
25346;DHT22;13300;51.032;3.710;2023-07-13T08:03:15;27.60;99.90
25346;DHT22;13300;51.032;3.710;2023-07-13T08:05:41;27.30;99.90
25346;DHT22;13300;51.032;3.710;2023-07-13T08:08:06;27.00;99.90
25346;DHT22;13300;51.032;3.710;2023-07-13T08:10:35;27.00;99.90
25346;DHT22;13300;51.032;3.710;2023-07-13T08:13:02;26.70;99.90
25346;DHT22;13300;51.032;3.710;2023-07-13T08:15:27;27.00;99.90
25346;DHT22;13300;51.032;3.710;2023-07-13T08:17:53;26.90;99.90
25346;DHT22;13300;51.032;3.710;2023-07-13T08:20:19;26.80;99.90
25346;DHT22;13300;51.032;3.710;2023-07-13T08:22:44;26.40;99.90
25346;DHT22;13300;51.032;3.710;2023-07-13T08:25:10;26.00;99.90
25346;DHT22;13300;51.032;3.710;2023-07-13T08:27:36;25.40;99.90
25346;DHT22;13300;51.032;3.710;2023-07-13T08:30:02;26.30;99.90
25346;DHT22;13300;51.032;3.710;2023-07-13T08:32:28;26.50;99.90
25346;DHT22;13300;51.032;3.710;2023-07-13T08:34:53;25.60;99.90
25346;DHT22;13300;51.032;3.710;2023-07-13T08:37:19;25.10;99.90
25346;DHT22;13300;51.032;3.710;2023-07-13T08:39:45;24.90;99.90
25346;DHT22;13300;51.032;3.710;2023-07-13T08:42:33;24.50;99.90
25346;DHT22;13300;51.032;3.710;2023-07-13T08:48:04;26.20;99.90
25346;DHT22;13300;51.032;3.710;2023-07-13T08:50:33;26.80;99.90
25346;DHT22;13300;51.032;3.710;2023-07-13T08:53:02;27.20;99.90
25346;DHT22;13300;51.032;3.710;2023-07-13T08:55:35;28.20;99.90
25346;DHT22;13300;51.032;3.710;2023-07-13T09:03:27;29.30;97.60
25346;DHT22;13300;51.032;3.710;2023-07-13T09:05:59;30.10;96.30
25346;DHT22;13300;51.032;3.710;2023-07-13T09:16:59;30.40;92.20
25346;DHT22;13300;51.032;3.710;2023-07-13T09:19:31;29.70;93.70
25346;DHT22;13300;51.032;3.710;2023-07-13T09:21:59;29.70;94.20
25346;DHT22;13300;51.032;3.710;2023-07-13T09:27:18;30.10;93.00
25346;DHT22;13300;51.032;3.710;2023-07-13T09:29:54;29.90;93.00
25346;DHT22;13300;51.032;3.710;2023-07-13T09:32:26;30.30;93.10
25346;DHT22;13300;51.032;3.710;2023-07-13T09:34:55;30.00;92.60
25346;DHT22;13300;51.032;3.710;2023-07-13T09:37:23;29.50;93.60
25346;DHT22;13300;51.032;3.710;2023-07-13T09:39:49;29.40;93.80
25346;DHT22;13300;51.032;3.710;2023-07-13T09:42:19;30.00;93.30
25346;DHT22;13300;51.032;3.710;2023-07-13T09:44:56;30.30;93.10
25346;DHT22;13300;51.032;3.710;2023-07-13T09:47:28;31.20;92.50
25346;DHT22;13300;51.032;3.710;2023-07-13T09:50:03;31.40;90.40
25346;DHT22;13300;51.032;3.710;2023-07-13T09:52:49;30.70;91.30
25346;DHT22;13300;51.032;3.710;2023-07-13T09:55:34;29.70;92.30
25346;DHT22;13300;51.032;3.710;2023-07-13T09:58:16;29.10;93.60
25346;DHT22;13300;51.032;3.710;2023-07-13T10:00:54;29.40;93.60
25346;DHT22;13300;51.032;3.710;2023-07-13T10:03:26;29.80;92.90
25346;DHT22;13300;51.032;3.710;2023-07-13T10:05:52;30.10;92.10
25346;DHT22;13300;51.032;3.710;2023-07-13T10:08:20;30.40;91.90
25346;DHT22;13300;51.032;3.710;2023-07-13T10:10:51;30.70;91.10
25346;DHT22;13300;51.032;3.710;2023-07-13T10:13:34;30.10;91.40
25346;DHT22;13300;51.032;3.710;2023-07-13T10:16:03;30.50;91.20
25346;DHT22;13300;51.032;3.710;2023-07-13T10:18:40;31.60;90.30
25346;DHT22;13300;51.032;3.710;2023-07-13T10:21:20;30.90;90.80
25346;DHT22;13300;51.032;3.710;2023-07-13T10:23:55;31.30;90.40
25346;DHT22;13300;51.032;3.710;2023-07-13T10:26:32;31.10;90.40
25346;DHT22;13300;51.032;3.710;2023-07-13T10:29:04;30.70;90.30
25346;DHT22;13300;51.032;3.710;2023-07-13T10:31:31;30.30;90.30
25346;DHT22;13300;51.032;3.710;2023-07-13T10:33:57;29.50;91.00
25346;DHT22;13300;51.032;3.710;2023-07-13T10:36:38;29.60;91.30
25346;DHT22;13300;51.032;3.710;2023-07-13T10:39:06;29.00;92.50
25346;DHT22;13300;51.032;3.710;2023-07-13T10:41:39;28.30;92.90
25346;DHT22;13300;51.032;3.710;2023-07-13T10:44:31;27.80;93.70
25346;DHT22;13300;51.032;3.710;2023-07-13T10:47:13;27.80;93.40
25346;DHT22;13300;51.032;3.710;2023-07-13T10:49:40;27.60;93.20
25346;DHT22;13300;51.032;3.710;2023-07-13T10:52:40;27.00;94.60
25346;DHT22;13300;51.032;3.710;2023-07-13T10:58:19;23.50;99.90
25346;DHT22;13300;51.032;3.710;2023-07-13T11:00:53;22.00;99.90
25346;DHT22;13300;51.032;3.710;2023-07-13T11:03:22;20.80;99.90
25346;DHT22;13300;51.032;3.710;2023-07-13T11:06:11;20.10;99.90
25346;DHT22;13300;51.032;3.710;2023-07-13T11:19:08;19.70;99.90
25346;DHT22;13300;51.032;3.710;2023-07-13T11:21:34;19.60;99.90
25346;DHT22;13300;51.032;3.710;2023-07-13T11:24:17;19.70;99.90
25346;DHT22;13300;51.032;3.710;2023-07-13T11:31:41;20.50;99.90
25346;DHT22;13300;51.032;3.710;2023-07-13T11:34:14;21.00;99.90
25346;DHT22;13300;51.032;3.710;2023-07-13T11:36:43;21.60;99.90
25346;DHT22;13300;51.032;3.710;2023-07-13T11:39:35;22.50;99.90
25346;DHT22;13300;51.032;3.710;2023-07-13T11:42:21;23.60;99.90
25346;DHT22;13300;51.032;3.710;2023-07-13T11:44:49;24.80;99.90
25346;DHT22;13300;51.032;3.710;2023-07-13T11:47:20;26.10;99.90
25346;DHT22;13300;51.032;3.710;2023-07-13T11:49:55;27.20;99.90
25346;DHT22;13300;51.032;3.710;2023-07-13T11:52:45;27.70;99.90
25346;DHT22;13300;51.032;3.710;2023-07-13T11:55:17;27.90;99.90
25346;DHT22;13300;51.032;3.710;2023-07-13T11:58:03;28.20;99.90
25346;DHT22;13300;51.032;3.710;2023-07-13T12:00:31;28.70;99.90
25346;DHT22;13300;51.032;3.710;2023-07-13T12:03:00;28.60;99.90
25346;DHT22;13300;51.032;3.710;2023-07-13T12:05:28;28.50;99.90
25346;DHT22;13300;51.032;3.710;2023-07-13T12:07:56;28.60;99.90
25346;DHT22;13300;51.032;3.710;2023-07-13T12:10:27;28.60;99.90
25346;DHT22;13300;51.032;3.710;2023-07-13T12:13:00;28.40;99.90
25346;DHT22;13300;51.032;3.710;2023-07-13T12:15:39;28.30;99.90
25346;DHT22;13300;51.032;3.710;2023-07-13T12:18:18;28.00;99.90
25346;DHT22;13300;51.032;3.710;2023-07-13T12:20:45;27.60;99.90
25346;DHT22;13300;51.032;3.710;2023-07-13T12:25:51;27.10;99.90
25346;DHT22;13300;51.032;3.710;2023-07-13T12:28:38;26.90;99.90
25346;DHT22;13300;51.032;3.710;2023-07-13T12:31:07;27.20;99.90
25346;DHT22;13300;51.032;3.710;2023-07-13T12:33:33;28.00;99.90
25346;DHT22;13300;51.032;3.710;2023-07-13T12:36:04;28.80;99.90
25346;DHT22;13300;51.032;3.710;2023-07-13T12:38:31;30.10;99.90
25346;DHT22;13300;51.032;3.710;2023-07-13T12:40:58;30.50;99.90
25346;DHT22;13300;51.032;3.710;2023-07-13T12:43:24;30.70;99.90
25346;DHT22;13300;51.032;3.710;2023-07-13T12:46:04;30.20;99.90
25346;DHT22;13300;51.032;3.710;2023-07-13T12:48:38;29.60;99.90
25346;DHT22;13300;51.032;3.710;2023-07-13T12:51:10;28.90;99.90
25346;DHT22;13300;51.032;3.710;2023-07-13T12:53:41;28.10;99.90
25346;DHT22;13300;51.032;3.710;2023-07-13T12:56:18;27.40;99.90
25346;DHT22;13300;51.032;3.710;2023-07-13T12:58:46;27.00;99.90
25346;DHT22;13300;51.032;3.710;2023-07-13T13:01:17;26.90;99.90
25346;DHT22;13300;51.032;3.710;2023-07-13T13:03:49;26.90;99.90
25346;DHT22;13300;51.032;3.710;2023-07-13T13:08:48;26.60;99.90
25346;DHT22;13300;51.032;3.710;2023-07-13T13:11:15;26.60;99.90
25346;DHT22;13300;51.032;3.710;2023-07-13T13:13:42;26.80;99.90
25346;DHT22;13300;51.032;3.710;2023-07-13T13:16:26;27.00;99.90
25346;DHT22;13300;51.032;3.710;2023-07-13T13:18:56;27.00;99.90
25346;DHT22;13300;51.032;3.710;2023-07-13T13:21:26;27.10;99.90
25346;DHT22;13300;51.032;3.710;2023-07-13T13:23:52;27.70;99.90
25346;DHT22;13300;51.032;3.710;2023-07-13T13:26:19;27.70;99.80
25346;DHT22;13300;51.032;3.710;2023-07-13T13:28:46;27.90;98.40
25346;DHT22;13300;51.032;3.710;2023-07-13T13:31:13;28.20;98.60
25346;DHT22;13300;51.032;3.710;2023-07-13T13:33:42;28.80;96.50
25346;DHT22;13300;51.032;3.710;2023-07-13T13:36:22;30.00;96.10
25346;DHT22;13300;51.032;3.710;2023-07-13T13:38:49;30.90;94.30
25346;DHT22;13300;51.032;3.710;2023-07-13T13:41:16;31.40;93.30
25346;DHT22;13300;51.032;3.710;2023-07-13T13:43:42;31.30;91.60
25346;DHT22;13300;51.032;3.710;2023-07-13T13:46:20;31.50;91.10
25346;DHT22;13300;51.032;3.710;2023-07-13T13:48:48;31.30;91.30
25346;DHT22;13300;51.032;3.710;2023-07-13T13:51:20;30.80;92.40
25346;DHT22;13300;51.032;3.710;2023-07-13T13:53:47;31.00;91.80
25346;DHT22;13300;51.032;3.710;2023-07-13T13:56:14;30.90;90.60
25346;DHT22;13300;51.032;3.710;2023-07-13T13:58:40;29.90;91.00
25346;DHT22;13300;51.032;3.710;2023-07-13T14:01:16;29.50;92.70
25346;DHT22;13300;51.032;3.710;2023-07-13T14:03:43;30.10;92.30
25346;DHT22;13300;51.032;3.710;2023-07-13T14:06:13;30.20;90.60
25346;DHT22;13300;51.032;3.710;2023-07-13T14:08:39;29.60;91.20
25346;DHT22;13300;51.032;3.710;2023-07-13T14:11:05;28.80;91.50
25346;DHT22;13300;51.032;3.710;2023-07-13T14:13:36;28.10;93.20
25346;DHT22;13300;51.032;3.710;2023-07-13T14:16:11;28.20;92.80
25346;DHT22;13300;51.032;3.710;2023-07-13T14:18:38;29.00;92.90
25346;DHT22;13300;51.032;3.710;2023-07-13T14:21:16;30.00;91.80
25346;DHT22;13300;51.032;3.710;2023-07-13T14:23:44;30.70;91.20
25346;DHT22;13300;51.032;3.710;2023-07-13T14:26:22;30.40;89.50
25346;DHT22;13300;51.032;3.710;2023-07-13T14:28:51;29.80;90.30
25346;DHT22;13300;51.032;3.710;2023-07-13T14:31:19;29.30;91.00
25346;DHT22;13300;51.032;3.710;2023-07-13T14:33:45;29.40;91.90
25346;DHT22;13300;51.032;3.710;2023-07-13T14:36:25;29.90;90.70
25346;DHT22;13300;51.032;3.710;2023-07-13T14:38:52;30.60;90.30
25346;DHT22;13300;51.032;3.710;2023-07-13T14:41:18;30.90;89.10
25346;DHT22;13300;51.032;3.710;2023-07-13T14:43:44;30.70;88.20
25346;DHT22;13300;51.032;3.710;2023-07-13T14:46:28;30.70;88.10
25346;DHT22;13300;51.032;3.710;2023-07-13T14:49:03;30.80;87.60
25346;DHT22;13300;51.032;3.710;2023-07-13T14:51:30;31.00;88.80
25346;DHT22;13300;51.032;3.710;2023-07-13T14:53:56;30.60;87.10
25346;DHT22;13300;51.032;3.710;2023-07-13T14:56:22;30.40;89.20
25346;DHT22;13300;51.032;3.710;2023-07-13T14:58:48;30.60;87.10
25346;DHT22;13300;51.032;3.710;2023-07-13T15:01:15;30.00;87.30
25346;DHT22;13300;51.032;3.710;2023-07-13T15:03:44;29.30;88.10
25346;DHT22;13300;51.032;3.710;2023-07-13T15:06:11;28.60;89.80
25346;DHT22;13300;51.032;3.710;2023-07-13T15:08:37;28.30;90.00
25346;DHT22;13300;51.032;3.710;2023-07-13T15:11:03;28.10;90.20
25346;DHT22;13300;51.032;3.710;2023-07-13T15:13:30;28.00;90.60
25346;DHT22;13300;51.032;3.710;2023-07-13T15:15:56;27.80;91.30
25346;DHT22;13300;51.032;3.710;2023-07-13T15:18:23;27.50;92.40
25346;DHT22;13300;51.032;3.710;2023-07-13T15:20:51;27.80;91.60
25346;DHT22;13300;51.032;3.710;2023-07-13T15:23:21;27.80;91.30
25346;DHT22;13300;51.032;3.710;2023-07-13T15:25:48;28.30;90.70
25346;DHT22;13300;51.032;3.710;2023-07-13T15:28:15;28.70;89.90
25346;DHT22;13300;51.032;3.710;2023-07-13T15:30:43;28.90;88.30
25346;DHT22;13300;51.032;3.710;2023-07-13T15:33:30;28.10;89.60
25346;DHT22;13300;51.032;3.710;2023-07-13T15:35:56;27.80;90.70
25346;DHT22;13300;51.032;3.710;2023-07-13T15:38:27;28.40;90.10
25346;DHT22;13300;51.032;3.710;2023-07-13T15:40:54;28.60;89.90
25346;DHT22;13300;51.032;3.710;2023-07-13T15:43:20;28.90;88.00
25346;DHT22;13300;51.032;3.710;2023-07-13T15:45:47;29.30;86.90
25346;DHT22;13300;51.032;3.710;2023-07-13T15:48:22;29.50;85.50
25346;DHT22;13300;51.032;3.710;2023-07-13T15:50:50;29.70;86.40
25346;DHT22;13300;51.032;3.710;2023-07-13T15:53:25;29.20;87.10
25346;DHT22;13300;51.032;3.710;2023-07-13T15:55:52;29.20;86.10
25346;DHT22;13300;51.032;3.710;2023-07-13T15:58:20;28.90;86.70
25346;DHT22;13300;51.032;3.710;2023-07-13T16:00:48;28.60;87.20
25346;DHT22;13300;51.032;3.710;2023-07-13T16:03:19;29.10;87.50
25346;DHT22;13300;51.032;3.710;2023-07-13T16:05:46;29.30;87.00
25346;DHT22;13300;51.032;3.710;2023-07-13T16:08:31;29.20;85.50
25346;DHT22;13300;51.032;3.710;2023-07-13T16:10:59;28.50;86.70
25346;DHT22;13300;51.032;3.710;2023-07-13T16:13:26;28.30;88.10
25346;DHT22;13300;51.032;3.710;2023-07-13T16:15:53;28.90;89.20
25346;DHT22;13300;51.032;3.710;2023-07-13T16:18:21;29.30;87.00
25346;DHT22;13300;51.032;3.710;2023-07-13T16:20:47;29.30;86.40
25346;DHT22;13300;51.032;3.710;2023-07-13T16:23:15;29.50;86.10